Time;durP1;ratioP1;P1;durP2;ratioP2;P2;SDS_P1;SDS_P2;PMS_P1;PMS_P2;Temp;Humidity;BMP_temperature;BMP_pressure;BME280_temperature;BME280_humidity;BME280_pressure;Samples;Min_cycle;Max_cycle;Signal;HPM_P1;HPM_P2
2023/03/13 00:01:42;;;;;;;44.95;24.88;;;26.60;99.90;;;;;;5013243;28;20022;-67
2023/03/13 00:04:08;;;;;;;;;;;26.60;99.90;;;;;;5013592;28;20136;-66
2023/03/13 00:06:37;;;;;;;58.95;29.98;;;26.60;99.90;;;;;;5013200;28;19917;-68
2023/03/13 00:09:06;;;;;;;67.45;32.63;;;26.60;99.90;;;;;;5013039;28;20029;-69
2023/03/13 00:11:33;;;;;;;80.45;36.20;;;26.70;99.90;;;;;;5013175;28;20064;-68
2023/03/13 00:14:02;;;;;;;69.40;34.63;;;26.80;99.90;;;;;;5011314;28;20057;-68
2023/03/13 00:16:29;;;;;;;57.70;35.83;;;26.80;99.90;;;;;;5019521;28;20328;-67
2023/03/13 00:18:57;;;;;;;53.58;35.35;;;26.80;99.90;;;;;;5031459;28;20076;-67
2023/03/13 00:21:25;;;;;;;63.22;34.08;;;26.90;99.90;;;;;;5036365;28;20104;-68
2023/03/13 00:23:52;;;;;;;50.17;33.58;;;26.90;99.90;;;;;;5030707;28;20026;-68
2023/03/13 00:26:21;;;;;;;53.95;35.95;;;26.90;99.90;;;;;;5022350;28;20033;-67
2023/03/13 00:28:49;;;;;;;51.50;36.30;;;27.00;99.90;;;;;;5029246;28;20378;-68
2023/03/13 00:31:19;;;;;;;49.90;34.38;;;27.00;99.90;;;;;;5027493;28;20040;-68
2023/03/13 00:33:47;;;;;;;46.38;27.85;;;27.10;99.90;;;;;;5023063;28;20080;-68
2023/03/13 00:36:17;;;;;;;43.35;27.35;;;27.10;99.90;;;;;;5019682;28;20619;-68
2023/03/13 00:38:44;;;;;;;36.03;24.13;;;27.20;99.90;;;;;;5026552;28;20018;-68
2023/03/13 00:41:13;;;;;;;45.45;26.63;;;27.20;99.90;;;;;;5024230;28;20022;-66
2023/03/13 00:43:41;;;;;;;44.22;26.92;;;27.30;99.90;;;;;;5023350;28;20092;-69
2023/03/13 00:46:09;;;;;;;42.50;25.70;;;27.30;99.90;;;;;;5021418;28;20455;-68
2023/03/13 00:48:35;;;;;;;34.85;21.05;;;27.40;99.90;;;;;;5008476;28;20030;-67
2023/03/13 00:51:03;;;;;;;32.08;21.15;;;27.40;99.90;;;;;;5016265;28;20105;-69
2023/03/13 00:53:30;;;;;;;32.90;22.27;;;27.40;99.90;;;;;;5016463;28;20115;-69
2023/03/13 00:56:03;;;;;;;44.83;25.95;;;27.50;99.90;;;;;;5016049;28;20044;-68
2023/03/13 00:58:32;;;;;;;136.63;95.32;;;27.50;99.90;;;;;;5016399;28;20483;-70
2023/03/13 01:01:25;;;;;;;118.97;83.90;;;27.60;99.90;;;;;;5016334;28;20096;-69
2023/03/13 01:03:54;;;;;;;136.75;88.55;;;27.60;99.90;;;;;;5017286;28;20049;-69
2023/03/13 01:06:24;;;;;;;70.70;56.63;;;27.70;99.90;;;;;;5016753;28;20050;-69
2023/03/13 01:08:50;;;;;;;69.10;43.22;;;27.70;99.90;;;;;;5016776;28;20058;-68
2023/03/13 01:11:20;;;;;;;150.50;97.88;;;27.70;99.90;;;;;;5016652;28;20116;-69
2023/03/13 01:13:48;;;;;;;182.85;120.00;;;27.70;99.90;;;;;;5016772;28;20391;-66
2023/03/13 01:16:19;;;;;;;69.82;45.58;;;27.70;99.90;;;;;;5016454;28;20037;-68
2023/03/13 01:18:49;;;;;;;217.23;138.90;;;27.70;99.90;;;;;;5016458;28;20033;-69
2023/03/13 01:21:18;;;;;;;305.80;164.63;;;27.80;99.90;;;;;;5016319;28;20387;-68
2023/03/13 01:23:46;;;;;;;236.73;128.63;;;27.80;99.90;;;;;;5016545;28;20030;-68
2023/03/13 01:26:14;;;;;;;319.95;163.32;;;27.80;99.90;;;;;;5016073;28;20097;-70
2023/03/13 01:28:40;;;;;;;60.17;31.40;;;27.80;99.90;;;;;;5015887;28;20030;-70
2023/03/13 01:31:14;;;;;;;503.30;279.73;;;27.80;99.90;;;;;;5016423;28;20022;-70
2023/03/13 01:33:41;;;;;;;65.32;35.83;;;27.90;99.90;;;;;;5016159;28;20076;-67
2023/03/13 01:36:08;;;;;;;47.58;24.50;;;28.00;99.90;;;;;;5016044;28;20022;-67
2023/03/13 01:38:35;;;;;;;45.50;29.27;;;28.10;99.90;;;;;;5016540;28;20029;-69
2023/03/13 01:41:02;;;;;;;26.17;13.93;;;28.10;99.90;;;;;;5016470;28;20494;-69
2023/03/13 01:43:32;;;;;;;26.50;15.82;;;28.10;99.90;;;;;;5016199;28;20030;-69
2023/03/13 01:46:03;;;;;;;200.52;79.68;;;28.10;99.90;;;;;;5016935;28;20033;-70
2023/03/13 01:48:53;;;;;;;60.95;28.15;;;28.20;99.90;;;;;;5016229;28;20021;-69
2023/03/13 01:51:34;;;;;;;30.17;15.48;;;28.20;99.90;;;;;;5016333;28;20022;-70
2023/03/13 01:54:12;;;;;;;72.15;38.92;;;28.20;99.90;;;;;;5016013;28;20076;-70
2023/03/13 01:56:44;;;;;;;114.35;49.47;;;28.30;99.90;;;;;;5016805;28;20406;-69
2023/03/13 01:59:16;;;;;;;55.67;25.33;;;28.40;99.90;;;;;;5016046;28;20537;-69
2023/03/13 02:01:45;;;;;;;399.77;154.15;;;28.40;99.90;;;;;;5016468;28;20459;-69
2023/03/13 02:04:14;;;;;;;133.05;50.63;;;28.30;99.90;;;;;;5015604;28;20049;-69
2023/03/13 02:06:44;;;;;;;45.40;20.15;;;28.40;99.90;;;;;;5015620;28;20049;-69
2023/03/13 02:09:17;;;;;;;28.38;14.23;;;28.50;99.90;;;;;;5015992;28;20104;-70
2023/03/13 02:11:55;;;;;;;46.90;21.80;;;28.50;99.90;;;;;;5015841;28;20025;-69
2023/03/13 02:14:26;;;;;;;32.50;16.60;;;28.50;99.90;;;;;;5016176;28;20076;-69
2023/03/13 02:16:54;;;;;;;29.05;14.32;;;28.50;99.90;;;;;;5016166;28;20024;-69
2023/03/13 02:19:45;;;;;;;31.70;18.58;;;28.40;99.90;;;;;;5015788;28;20522;-69
2023/03/13 02:22:30;;;;;;;39.65;21.40;;;28.40;99.90;;;;;;5014933;28;20037;-66
2023/03/13 02:25:21;;;;;;;74.07;32.60;;;28.40;99.90;;;;;;5014659;28;20029;-69
2023/03/13 02:27:51;;;;;;;110.63;49.80;;;28.50;99.90;;;;;;5014227;28;20069;-68
2023/03/13 02:30:18;;;;;;;51.35;22.77;;;28.60;99.90;;;;;;5014309;28;20104;-68
2023/03/13 02:32:45;;;;;;;26.88;14.05;;;28.70;99.90;;;;;;5014403;28;20083;-66
2023/03/13 02:35:16;;;;;;;142.55;57.03;;;28.90;99.90;;;;;;5014201;28;20030;-68
2023/03/13 02:37:45;;;;;;;75.88;33.92;;;28.90;99.90;;;;;;5014193;28;20033;-67
2023/03/13 02:40:15;;;;;;;34.03;16.73;;;29.10;99.90;;;;;;5013468;28;20368;-66
2023/03/13 02:42:45;;;;;;;18.80;10.45;;;29.10;99.90;;;;;;5014094;28;20029;-66
2023/03/13 02:45:16;;;;;;;50.75;26.10;;;29.10;99.90;;;;;;5013985;28;20026;-66
2023/03/13 02:47:43;;;;;;;25.35;14.52;;;29.20;99.90;;;;;;5007962;28;20109;-64
2023/03/13 02:50:10;;;;;;;24.90;14.60;;;29.20;99.90;;;;;;5000833;28;20080;-66
2023/03/13 02:52:45;;;;;;;26.02;13.13;;;29.30;99.90;;;;;;4994506;28;20023;-65
2023/03/13 02:55:27;;;;;;;14.68;7.65;;;29.30;99.90;;;;;;4994271;28;20110;-65
2023/03/13 02:57:54;;;;;;;27.83;13.90;;;29.30;99.90;;;;;;4994398;28;20502;-67
2023/03/13 03:00:25;;;;;;;56.38;30.27;;;29.20;99.90;;;;;;4994358;28;20498;-68
2023/03/13 03:02:53;;;;;;;41.67;23.33;;;29.30;99.90;;;;;;4994194;28;20046;-65
2023/03/13 03:05:21;;;;;;;67.82;32.10;;;29.30;99.90;;;;;;4994556;28;20040;-67
2023/03/13 03:07:48;;;;;;;40.92;18.33;;;29.50;99.90;;;;;;4994095;28;20058;-68
2023/03/13 03:10:15;;;;;;;25.52;14.68;;;29.50;99.90;;;;;;4994435;28;20030;-68
2023/03/13 03:12:42;;;;;;;35.80;17.20;;;29.70;99.90;;;;;;4994498;28;20081;-69
2023/03/13 03:15:09;;;;;;;19.73;9.90;;;29.80;99.90;;;;;;4994091;28;20030;-71
2023/03/13 03:17:36;;;;;;;28.10;11.27;;;29.80;99.90;;;;;;4993001;28;20395;-69
2023/03/13 03:20:06;;;;;;;18.05;8.48;;;29.90;99.90;;;;;;4994228;28;20026;-70
2023/03/13 03:22:33;;;;;;;17.40;7.82;;;29.90;99.90;;;;;;4994463;28;20050;-67
2023/03/13 03:25:00;;;;;;;29.13;13.30;;;30.00;99.90;;;;;;4994151;28;20029;-67
2023/03/13 03:27:26;;;;;;;14.55;6.90;;;30.00;99.90;;;;;;4997901;28;20191;-66
2023/03/13 03:29:53;;;;;;;85.43;30.95;;;30.00;99.90;;;;;;5009209;28;20021;-68
2023/03/13 03:32:20;;;;;;;52.35;20.48;;;30.10;99.90;;;;;;5013327;28;20018;-68
2023/03/13 03:34:46;;;;;;;83.75;31.17;;;30.20;99.90;;;;;;4993824;28;20030;-67
2023/03/13 03:37:13;;;;;;;84.70;31.98;;;30.30;99.90;;;;;;4993752;28;20378;-68
2023/03/13 03:39:39;;;;;;;90.15;33.90;;;30.40;99.90;;;;;;4993781;28;20025;-68
2023/03/13 03:42:06;;;;;;;157.48;57.95;;;30.50;99.90;;;;;;4993820;28;20046;-68
2023/03/13 03:44:32;;;;;;;96.50;36.08;;;30.50;99.90;;;;;;4993680;28;20050;-68
2023/03/13 03:46:59;;;;;;;77.10;25.77;;;30.50;99.90;;;;;;4993848;28;20430;-67
2023/03/13 03:49:25;;;;;;;113.65;43.30;;;30.50;99.90;;;;;;4993759;28;20073;-68
2023/03/13 03:51:52;;;;;;;85.57;32.58;;;30.50;99.90;;;;;;4995844;28;20436;-68
2023/03/13 03:54:18;;;;;;;73.22;29.38;;;30.50;99.90;;;;;;4997499;28;20030;-68
2023/03/13 03:56:45;;;;;;;60.72;20.58;;;30.50;99.90;;;;;;4997569;28;20105;-68
2023/03/13 03:59:12;;;;;;;62.65;23.42;;;30.60;99.90;;;;;;4997464;28;20097;-67
2023/03/13 04:01:38;;;;;;;311.45;116.00;;;30.60;99.90;;;;;;4997612;28;20050;-68
2023/03/13 04:04:05;;;;;;;48.88;20.92;;;30.70;99.90;;;;;;4997446;28;20469;-69
2023/03/13 04:06:31;;;;;;;116.68;43.03;;;30.70;99.90;;;;;;4997403;28;20022;-68
2023/03/13 04:08:58;;;;;;;264.52;93.75;;;30.80;99.90;;;;;;4996978;28;20022;-68
2023/03/13 04:11:24;;;;;;;158.82;53.40;;;30.80;99.90;;;;;;4997197;28;20077;-68
2023/03/13 04:13:51;;;;;;;75.10;28.35;;;30.90;99.90;;;;;;4996844;28;20037;-68
2023/03/13 04:16:17;;;;;;;163.63;68.97;;;30.90;99.90;;;;;;4997161;28;20550;-67
2023/03/13 04:18:44;;;;;;;30.52;15.23;;;31.00;99.90;;;;;;4997124;28;20030;-68
2023/03/13 04:21:10;;;;;;;76.82;37.33;;;30.90;99.90;;;;;;4996802;28;20537;-68
2023/03/13 04:23:37;;;;;;;251.88;94.53;;;30.90;99.90;;;;;;5008083;28;20037;-67
2023/03/13 04:26:03;;;;;;;29.77;14.77;;;30.90;99.90;;;;;;4997293;28;20384;-68
2023/03/13 04:28:30;;;;;;;71.57;32.08;;;30.90;99.90;;;;;;5015391;28;20018;-69
2023/03/13 04:30:57;;;;;;;36.63;19.20;;;30.90;99.90;;;;;;5005839;28;20391;-70
2023/03/13 04:33:24;;;;;;;15.20;8.25;;;30.90;99.90;;;;;;4999910;28;20022;-70
2023/03/13 04:35:51;;;;;;;38.67;16.75;;;31.00;99.90;;;;;;5016467;28;20079;-64
2023/03/13 04:38:17;;;;;;;33.83;15.18;;;31.00;99.90;;;;;;5016390;28;20022;-65
2023/03/13 04:40:45;;;;;;;23.10;10.82;;;31.00;99.90;;;;;;5016454;28;20026;-64
2023/03/13 04:43:11;;;;;;;20.92;9.00;;;31.00;99.90;;;;;;5016369;28;20029;-65
2023/03/13 04:45:38;;;;;;;13.35;6.90;;;31.10;99.90;;;;;;5016070;28;20050;-64
2023/03/13 04:48:04;;;;;;;13.57;6.80;;;31.20;99.90;;;;;;5014633;28;20034;-64
2023/03/13 04:50:31;;;;;;;11.07;6.55;;;31.30;99.90;;;;;;4996572;28;20026;-64
2023/03/13 04:52:57;;;;;;;11.70;7.72;;;31.40;99.90;;;;;;4996368;28;20030;-64
2023/03/13 04:55:24;;;;;;;17.05;8.57;;;31.30;99.90;;;;;;4996333;28;20033;-64
2023/03/13 04:57:50;;;;;;;15.63;7.38;;;31.20;99.90;;;;;;4996332;28;20033;-68
2023/03/13 05:00:17;;;;;;;15.05;7.93;;;31.10;99.90;;;;;;4996185;28;20030;-69
2023/03/13 05:02:44;;;;;;;14.05;7.82;;;31.00;99.90;;;;;;4995618;28;20030;-69
2023/03/13 05:05:10;;;;;;;14.65;7.53;;;30.90;99.90;;;;;;4996382;28;20022;-69
2023/03/13 05:07:37;;;;;;;19.75;7.75;;;30.80;99.90;;;;;;4996441;28;20379;-69
2023/03/13 05:10:04;;;;;;;26.88;9.85;;;30.70;99.90;;;;;;4996147;28;20030;-69
2023/03/13 05:12:30;;;;;;;20.45;10.23;;;30.70;99.90;;;;;;4996135;28;20033;-69
2023/03/13 05:14:57;;;;;;;30.90;12.10;;;30.70;99.90;;;;;;4995922;28;20053;-65
2023/03/13 05:17:23;;;;;;;47.63;19.75;;;30.70;99.90;;;;;;4996281;28;20026;-67
2023/03/13 05:19:50;;;;;;;19.33;10.60;;;30.80;99.90;;;;;;5011817;28;20061;-65
2023/03/13 05:22:16;;;;;;;16.92;7.72;;;30.90;99.90;;;;;;5035330;28;20100;-66
2023/03/13 05:24:43;;;;;;;22.75;11.35;;;30.90;99.90;;;;;;5035399;28;20049;-67
2023/03/13 05:27:09;;;;;;;10.95;6.82;;;30.90;99.90;;;;;;5035447;28;20112;-66
2023/03/13 05:29:36;;;;;;;15.48;8.38;;;31.00;99.90;;;;;;5035586;28;20017;-65
2023/03/13 05:32:02;;;;;;;27.92;11.90;;;31.00;99.90;;;;;;5035601;28;20528;-67
2023/03/13 05:34:29;;;;;;;12.07;7.47;;;31.10;99.90;;;;;;5034830;28;20030;-66
2023/03/13 05:36:55;;;;;;;46.05;19.05;;;31.20;99.90;;;;;;5023326;28;20496;-67
2023/03/13 05:39:22;;;;;;;10.68;7.88;;;31.20;99.90;;;;;;5025017;28;20706;-65
2023/03/13 05:41:48;;;;;;;14.88;6.93;;;31.30;99.90;;;;;;5024864;28;20026;-64
2023/03/13 05:44:15;;;;;;;16.08;7.22;;;31.30;99.90;;;;;;5023649;28;20050;-67
2023/03/13 05:46:41;;;;;;;12.32;8.07;;;31.30;99.90;;;;;;5019619;28;20668;-66
2023/03/13 05:49:08;;;;;;;12.15;7.45;;;31.30;99.90;;;;;;5018082;28;20033;-68
2023/03/13 05:51:35;;;;;;;22.60;10.63;;;31.40;99.90;;;;;;5026855;28;20032;-67
2023/03/13 05:54:01;;;;;;;21.00;10.80;;;31.40;99.90;;;;;;5024306;28;20046;-67
2023/03/13 05:56:27;;;;;;;13.35;7.28;;;31.50;99.90;;;;;;5030598;28;20022;-66
2023/03/13 05:58:54;;;;;;;11.32;6.97;;;31.50;99.90;;;;;;5015260;28;20029;-68
2023/03/13 06:01:20;;;;;;;33.08;14.77;;;31.50;99.90;;;;;;5021153;28;20505;-67
2023/03/13 06:03:47;;;;;;;13.77;8.40;;;31.60;99.90;;;;;;5024078;28;20429;-67
2023/03/13 06:06:14;;;;;;;22.75;11.00;;;31.70;99.90;;;;;;5021861;28;20037;-68
2023/03/13 06:08:40;;;;;;;8.85;6.13;;;31.70;99.90;;;;;;5021526;28;20105;-67
2023/03/13 06:11:07;;;;;;;14.07;8.82;;;31.70;99.90;;;;;;5026925;28;20437;-68
2023/03/13 06:13:33;;;;;;;23.00;11.55;;;31.70;99.90;;;;;;5022642;28;20105;-66
2023/03/13 06:16:00;;;;;;;16.25;9.73;;;31.70;99.90;;;;;;5027312;28;20080;-65
2023/03/13 06:18:27;;;;;;;12.35;6.82;;;31.80;99.90;;;;;;5023069;28;20021;-66
2023/03/13 06:20:58;;;;;;;36.90;14.80;;;31.80;99.90;;;;;;5019350;28;20523;-67
2023/03/13 06:23:25;;;;;;;14.18;6.72;;;31.70;99.90;;;;;;5011509;28;20087;-66
2023/03/13 06:25:52;;;;;;;36.20;23.23;;;31.80;99.90;;;;;;5019452;28;20061;-67
2023/03/13 06:28:19;;;;;;;60.30;32.63;;;31.70;99.90;;;;;;5019320;28;20022;-66
2023/03/13 06:30:46;;;;;;;23.45;12.73;;;31.80;99.90;;;;;;5019236;28;20032;-68
2023/03/13 06:33:12;;;;;;;52.17;28.65;;;31.70;99.90;;;;;;5014496;28;20372;-65
2023/03/13 06:35:42;;;;;;;25.35;13.93;;;31.60;99.90;;;;;;5025497;28;20505;-66
2023/03/13 06:38:09;;;;;;;22.48;13.27;;;31.40;99.90;;;;;;5018726;28;20541;-67
2023/03/13 06:40:36;;;;;;;21.67;11.35;;;31.30;99.90;;;;;;5027086;28;20482;-67
2023/03/13 06:43:03;;;;;;;12.82;7.63;;;31.20;99.90;;;;;;5022242;28;20025;-70
2023/03/13 06:45:29;;;;;;;16.52;8.63;;;31.20;99.90;;;;;;5018515;28;20047;-69
2023/03/13 06:47:56;;;;;;;14.85;8.35;;;31.10;99.90;;;;;;5005323;28;20028;-67
2023/03/13 06:50:22;;;;;;;15.63;9.85;;;31.00;99.90;;;;;;5012008;28;20104;-69
2023/03/13 06:52:49;;;;;;;18.95;10.73;;;30.80;99.90;;;;;;5010788;28;20489;-68
2023/03/13 06:55:16;;;;;;;30.92;17.30;;;30.60;99.90;;;;;;5010242;28;20085;-70
2023/03/13 06:57:43;;;;;;;22.42;9.27;;;30.50;99.90;;;;;;4994504;28;20018;-69
2023/03/13 07:00:10;;;;;;;22.20;9.57;;;30.10;99.90;;;;;;4994501;28;20058;-67
2023/03/13 07:02:37;;;;;;;28.50;9.82;;;29.80;99.90;;;;;;4994541;28;20471;-68
2023/03/13 07:05:04;;;;;;;22.20;9.27;;;29.40;99.90;;;;;;4994368;28;20183;-69
2023/03/13 07:07:34;;;;;;;23.08;9.15;;;29.20;99.90;;;;;;4994461;28;20022;-68
2023/03/13 07:10:01;;;;;;;23.08;8.80;;;29.00;99.90;;;;;;4994297;28;20027;-69
2023/03/13 07:12:27;;;;;;;16.92;8.07;;;28.90;99.90;;;;;;4994341;28;20022;-70
2023/03/13 07:14:54;;;;;;;13.63;6.97;;;28.90;99.90;;;;;;4994037;28;20105;-72
2023/03/13 07:17:20;;;;;;;9.68;6.18;;;28.80;99.90;;;;;;4994209;28;20023;-73
2023/03/13 07:19:47;;;;;;;16.33;8.20;;;28.80;99.90;;;;;;4994042;28;20081;-66
2023/03/13 07:22:14;;;;;;;28.45;11.88;;;28.70;99.90;;;;;;4994305;28;20026;-68
2023/03/13 07:24:40;;;;;;;31.15;13.27;;;28.80;99.90;;;;;;4993917;28;20022;-69
2023/03/13 07:27:06;;;;;;;18.70;10.02;;;28.70;99.90;;;;;;4994143;28;20077;-68
2023/03/13 07:29:33;;;;;;;14.25;7.35;;;28.70;99.90;;;;;;4994142;28;20062;-68
2023/03/13 07:31:59;;;;;;;10.70;6.40;;;28.70;99.90;;;;;;4994177;28;20430;-70
2023/03/13 07:34:26;;;;;;;12.38;6.75;;;28.60;99.90;;;;;;4993881;28;20105;-68
2023/03/13 07:36:53;;;;;;;10.73;5.97;;;28.60;99.90;;;;;;4993856;28;20042;-69
2023/03/13 07:39:19;;;;;;;11.18;6.10;;;28.70;99.90;;;;;;4993883;28;20026;-70
2023/03/13 07:41:46;;;;;;;10.98;6.75;;;28.70;99.90;;;;;;4993896;28;20077;-69
2023/03/13 07:44:12;;;;;;;21.13;10.93;;;28.70;99.90;;;;;;4993951;28;20023;-70
2023/03/13 07:46:39;;;;;;;21.55;10.75;;;28.80;99.90;;;;;;4993758;28;20030;-71
2023/03/13 07:49:05;;;;;;;18.55;9.38;;;28.80;99.90;;;;;;4994162;28;20026;-70
2023/03/13 07:51:35;;;;;;;17.50;9.35;;;28.80;99.90;;;;;;5002821;28;20030;-69
2023/03/13 07:54:01;;;;;;;16.00;8.32;;;28.80;99.90;;;;;;5013469;28;20018;-69
2023/03/13 07:56:28;;;;;;;11.88;7.72;;;28.80;99.90;;;;;;5013527;28;20072;-71
2023/03/13 07:58:54;;;;;;;12.52;9.20;;;29.00;99.90;;;;;;5019056;28;20029;-70
2023/03/13 08:01:24;;;;;;;15.25;8.88;;;29.00;99.90;;;;;;5033220;28;20024;-71
2023/03/13 08:03:51;;;;;;;15.32;8.30;;;29.00;99.90;;;;;;5033442;28;20042;-71
2023/03/13 08:06:19;;;;;;;17.65;8.57;;;29.00;99.90;;;;;;5033228;28;20493;-71
2023/03/13 08:08:46;;;;;;;14.70;8.75;;;29.00;99.90;;;;;;5033892;28;20132;-72
2023/03/13 08:11:18;;;;;;;12.00;7.65;;;29.00;99.90;;;;;;5029746;28;20022;-71
2023/03/13 08:13:45;;;;;;;16.25;8.45;;;29.00;99.90;;;;;;5003113;28;20360;-71
2023/03/13 08:16:16;;;;;;;14.10;8.05;;;29.00;99.90;;;;;;5013383;28;20127;-72
2023/03/13 08:18:45;;;;;;;14.30;8.77;;;28.90;99.90;;;;;;5013175;28;20018;-71
2023/03/13 08:21:14;;;;;;;13.07;9.15;;;28.90;99.90;;;;;;5012960;28;20042;-71
2023/03/13 08:23:41;;;;;;;14.88;9.48;;;29.00;99.90;;;;;;5013205;28;20053;-69
2023/03/13 08:26:14;;;;;;;14.38;9.43;;;29.00;99.90;;;;;;5013094;28;20069;-69
2023/03/13 08:28:42;;;;;;;14.52;9.15;;;29.00;99.90;;;;;;5012916;28;20029;-71
2023/03/13 08:31:11;;;;;;;14.98;9.32;;;29.00;99.90;;;;;;5013157;28;20386;-71
2023/03/13 08:33:39;;;;;;;14.27;8.95;;;29.10;99.90;;;;;;5013154;28;20050;-71
2023/03/13 08:36:12;;;;;;;16.17;10.38;;;29.10;99.90;;;;;;5013077;28;20457;-71
2023/03/13 08:38:41;;;;;;;19.23;11.05;;;29.10;99.90;;;;;;5014509;28;20025;-71
2023/03/13 08:41:08;;;;;;;23.27;12.57;;;29.10;99.90;;;;;;5016203;28;20026;-70
2023/03/13 08:43:35;;;;;;;22.42;13.25;;;29.20;99.90;;;;;;5016554;28;20025;-72
2023/03/13 08:46:01;;;;;;;21.77;13.50;;;29.20;99.90;;;;;;5010395;28;20037;-71
2023/03/13 08:48:28;;;;;;;20.73;12.52;;;29.20;99.90;;;;;;5016087;28;20101;-65
2023/03/13 08:51:02;;;;;;;30.48;17.70;;;29.30;99.90;;;;;;5016853;28;20033;-67
2023/03/13 08:53:28;;;;;;;29.63;18.05;;;29.30;99.90;;;;;;5016284;28;20029;-67
2023/03/13 08:55:55;;;;;;;29.02;18.92;;;29.30;99.90;;;;;;5015914;28;20037;-67
2023/03/13 08:58:21;;;;;;;24.08;14.55;;;29.30;99.90;;;;;;5015975;28;20021;-67
2023/03/13 09:00:48;;;;;;;22.70;16.27;;;29.40;99.90;;;;;;4996735;28;20077;-70
2023/03/13 09:03:16;;;;;;;40.22;26.17;;;29.40;99.90;;;;;;4996733;28;20092;-69
2023/03/13 09:05:43;;;;;;;50.78;34.92;;;29.40;99.90;;;;;;4996424;28;20034;-70
2023/03/13 09:08:09;;;;;;;66.03;47.95;;;29.30;99.90;;;;;;4996295;28;20098;-70
2023/03/13 09:10:36;;;;;;;114.95;85.32;;;29.30;99.90;;;;;;4996219;28;20483;-68
2023/03/13 09:13:02;;;;;;;75.80;59.35;;;29.30;99.90;;;;;;4996423;28;20034;-70
2023/03/13 09:15:29;;;;;;;57.38;45.88;;;29.30;99.90;;;;;;4996489;28;20138;-70
2023/03/13 09:17:55;;;;;;;49.35;38.00;;;29.30;99.90;;;;;;4994754;28;20101;-68
2023/03/13 09:20:22;;;;;;;30.33;22.05;;;29.40;99.90;;;;;;4994279;28;20037;-69
2023/03/13 09:22:49;;;;;;;60.65;42.63;;;29.30;99.90;;;;;;4994490;28;20018;-68
2023/03/13 09:25:15;;;;;;;65.38;50.00;;;29.30;99.90;;;;;;4994516;28;20114;-69
2023/03/13 09:27:42;;;;;;;92.30;81.53;;;29.30;99.90;;;;;;4994284;28;20032;-68
2023/03/13 09:30:09;;;;;;;98.32;84.30;;;29.30;99.90;;;;;;4994523;28;20399;-69
2023/03/13 09:32:35;;;;;;;79.00;66.47;;;29.30;99.90;;;;;;4995405;28;20509;-70
2023/03/13 09:35:02;;;;;;;43.55;33.03;;;29.30;99.90;;;;;;4995829;28;20027;-70
2023/03/13 09:37:29;;;;;;;63.28;39.05;;;29.30;99.90;;;;;;5014992;28;20013;-70
2023/03/13 09:39:57;;;;;;;44.28;31.77;;;29.20;99.90;;;;;;5021476;28;20025;-70
2023/03/13 09:42:44;;;;;;;34.88;25.02;;;29.10;99.90;;;;;;5024688;28;20026;-70
2023/03/13 09:45:19;;;;;;;40.08;29.70;;;29.10;99.90;;;;;;5025046;28;20481;-70
2023/03/13 09:47:55;;;;;;;34.83;23.20;;;29.10;99.90;;;;;;5025009;28;20124;-70
2023/03/13 09:50:36;;;;;;;44.05;29.63;;;29.10;99.90;;;;;;5022915;28;20020;-70
2023/03/13 09:53:16;;;;;;;23.02;14.23;;;29.00;99.90;;;;;;5023262;28;20037;-69
2023/03/13 09:55:44;;;;;;;45.58;24.58;;;29.00;99.90;;;;;;5022803;28;20366;-70
2023/03/13 09:58:24;;;;;;;22.67;15.27;;;29.00;99.90;;;;;;5024611;28;20122;-70
2023/03/13 10:00:59;;;;;;;25.33;13.45;;;29.00;99.90;;;;;;5024693;28;20466;-69
2023/03/13 10:03:38;;;;;;;20.63;13.10;;;28.90;99.90;;;;;;5022362;28;20038;-70
2023/03/13 10:06:20;;;;;;;19.50;12.13;;;28.80;99.90;;;;;;5015266;28;20036;-70
2023/03/13 10:08:47;;;;;;;22.35;12.48;;;28.80;99.90;;;;;;5008955;28;20038;-70
2023/03/13 10:11:43;;;;;;;20.25;11.70;;;28.70;99.90;;;;;;5003044;28;20030;-70
2023/03/13 10:14:16;;;;;;;24.60;13.65;;;28.60;99.90;;;;;;4994978;28;20027;-69
2023/03/13 10:16:55;;;;;;;28.88;14.55;;;28.60;99.90;;;;;;4995010;28;20076;-70
2023/03/13 10:19:41;;;;;;;24.33;13.80;;;28.60;99.90;;;;;;4995011;28;20018;-70
2023/03/13 10:22:18;;;;;;;22.60;12.88;;;28.50;99.90;;;;;;4994829;28;20030;-66
2023/03/13 10:25:26;;;;;;;18.90;11.77;;;28.40;99.90;;;;;;4994783;28;20031;-69
2023/03/13 10:27:53;;;;;;;16.35;10.90;;;28.30;99.90;;;;;;4994907;28;20033;-69
2023/03/13 10:30:25;;;;;;;19.25;11.45;;;28.30;99.90;;;;;;4994913;28;20034;-68
2023/03/13 10:32:56;;;;;;;19.25;11.95;;;28.20;99.90;;;;;;4994608;28;20026;-69
2023/03/13 10:35:30;;;;;;;25.95;11.13;;;28.20;99.90;;;;;;4994762;28;20042;-69
2023/03/13 10:38:12;;;;;;;21.63;9.52;;;28.10;99.90;;;;;;4994645;28;20026;-68
2023/03/13 10:40:41;;;;;;;22.67;11.65;;;28.10;99.90;;;;;;4994734;28;20030;-69
2023/03/13 10:43:28;;;;;;;17.42;10.77;;;28.10;99.90;;;;;;4994916;28;20085;-69
2023/03/13 10:45:56;;;;;;;13.68;9.85;;;28.10;99.90;;;;;;4994617;28;20054;-69
2023/03/13 10:48:25;;;;;;;19.52;12.15;;;28.00;99.90;;;;;;4994868;28;20058;-69
2023/03/13 10:50:57;;;;;;;27.08;13.52;;;28.00;99.90;;;;;;4994365;28;20026;-69
2023/03/13 10:53:32;;;;;;;18.63;11.93;;;28.00;99.90;;;;;;4994693;28;20034;-69
2023/03/13 10:56:14;;;;;;;22.75;13.07;;;27.90;99.90;;;;;;4994214;28;20272;-68
2023/03/13 10:58:47;;;;;;;18.77;10.27;;;28.00;99.90;;;;;;4994503;28;20050;-69
2023/03/13 11:01:15;;;;;;;12.52;9.70;;;27.90;99.90;;;;;;4993806;28;20026;-68
2023/03/13 11:03:42;;;;;;;15.00;9.02;;;27.90;99.90;;;;;;4994383;28;20042;-69
2023/03/13 11:06:23;;;;;;;14.63;8.77;;;27.90;99.90;;;;;;4994499;28;20064;-69
2023/03/13 11:08:57;;;;;;;12.40;9.83;;;27.90;99.90;;;;;;4994562;28;20372;-69
2023/03/13 11:11:29;;;;;;;14.85;11.18;;;27.90;99.90;;;;;;4994295;28;20094;-69
2023/03/13 11:14:08;;;;;;;15.38;10.82;;;27.90;99.90;;;;;;4994269;28;20030;-69
2023/03/13 11:16:45;;;;;;;19.67;11.50;;;27.90;99.90;;;;;;4994074;28;20033;-69
2023/03/13 11:19:44;;;;;;;19.02;12.60;;;27.90;99.90;;;;;;4993965;28;20025;-69
2023/03/13 11:22:39;;;;;;;17.02;11.52;;;27.90;99.90;;;;;;4994050;28;20018;-69
2023/03/13 11:25:20;;;;;;;25.00;13.63;;;28.00;99.90;;;;;;4983871;28;20038;-69
2023/03/13 11:28:07;;;;;;;26.02;17.33;;;28.00;99.90;;;;;;4994229;28;20018;-69
2023/03/13 11:30:46;;;;;;;31.83;18.73;;;27.90;99.90;;;;;;4994131;28;20038;-67
2023/03/13 11:33:49;;;;;;;31.08;20.17;;;27.90;99.90;;;;;;4994000;28;20076;-67
2023/03/13 11:36:49;;;;;;;33.20;22.83;;;27.80;99.90;;;;;;4991218;28;20042;-69
2023/03/13 11:39:48;;;;;;;37.78;24.58;;;27.80;99.90;;;;;;4993530;28;20081;-69
2023/03/13 11:42:35;;;;;;;37.95;24.10;;;27.80;99.90;;;;;;4993675;28;20074;-69
2023/03/13 11:45:33;;;;;;;42.33;25.58;;;27.80;99.90;;;;;;4993759;28;20379;-69
2023/03/13 11:48:12;;;;;;;39.67;28.85;;;27.70;99.90;;;;;;4954288;28;20034;-69
2023/03/13 11:51:16;;;;;;;61.80;39.20;;;27.60;99.90;;;;;;4993686;28;20097;-69
2023/03/13 11:54:13;;;;;;;67.28;44.30;;;27.70;99.90;;;;;;4993536;28;20057;-68
2023/03/13 11:56:51;;;;;;;61.83;42.25;;;27.60;99.90;;;;;;4993985;28;20030;-69
2023/03/13 11:59:36;;;;;;;61.15;39.50;;;27.60;99.90;;;;;;4993723;28;20142;-71
2023/03/13 12:02:26;;;;;;;49.17;33.40;;;27.60;99.90;;;;;;4993705;28;20105;-68
2023/03/13 12:05:08;;;;;;;45.42;29.85;;;27.60;99.90;;;;;;4993695;28;20058;-69
2023/03/13 12:08:02;;;;;;;42.55;26.50;;;27.60;99.90;;;;;;4993406;28;20030;-68
2023/03/13 12:10:46;;;;;;;37.45;25.27;;;27.60;99.90;;;;;;5001926;28;20051;-69
2023/03/13 12:13:33;;;;;;;31.83;23.70;;;27.50;99.90;;;;;;5010980;28;20550;-68
2023/03/13 12:16:07;;;;;;;38.40;25.83;;;27.60;99.90;;;;;;5016796;28;20069;-69
2023/03/13 12:18:39;;;;;;;42.30;25.80;;;27.60;99.90;;;;;;5021411;28;20028;-70
2023/03/13 12:21:11;;;;;;;40.47;25.90;;;27.60;99.90;;;;;;5022861;28;20071;-69
2023/03/13 12:24:03;;;;;;;44.15;27.77;;;27.60;99.90;;;;;;5033896;28;20313;-69
2023/03/13 12:26:48;;;;;;;44.77;28.37;;;27.60;99.90;;;;;;5032790;28;20326;-69
2023/03/13 12:29:40;;;;;;;45.17;28.20;;;27.60;99.90;;;;;;5014070;28;20266;-68
2023/03/13 12:32:32;;;;;;;37.42;27.52;;;27.70;99.90;;;;;;5017556;28;20041;-69
2023/03/13 12:35:04;;;;;;;34.75;25.77;;;27.60;99.90;;;;;;5025141;28;20071;-68
2023/03/13 12:37:39;;;;;;;37.92;26.20;;;27.60;99.90;;;;;;5027513;28;20101;-70
2023/03/13 12:40:27;;;;;;;42.08;27.30;;;27.60;99.90;;;;;;5020067;28;20026;-68
2023/03/13 12:43:24;;;;;;;40.35;28.98;;;27.60;99.90;;;;;;5021755;28;20029;-66
2023/03/13 12:45:57;;;;;;;49.42;33.50;;;27.60;99.90;;;;;;5025695;28;20032;-69
2023/03/13 12:48:44;;;;;;;62.00;40.70;;;27.70;99.90;;;;;;5023677;28;20030;-67